Time;durP1;ratioP1;P1;durP2;ratioP2;P2;SDS_P1;SDS_P2;PMS_P1;PMS_P2;Temp;Humidity;BMP_temperature;BMP_pressure;BME280_temperature;BME280_humidity;BME280_pressure;Samples;Min_cycle;Max_cycle;Signal;HPM_P1;HPM_P2
2021/01/02 00:01:35;;;;;;;50.88;23.25;;;3.40;99.90;;;;;;5010015;28;20483;-74
2021/01/02 00:04:23;;;;;;;45.08;20.95;;;3.50;99.90;;;;;;5011347;28;20018;-75
2021/01/02 00:07:03;;;;;;;53.08;22.88;;;3.50;99.90;;;;;;5009903;28;20612;-75
2021/01/02 00:09:32;;;;;;;;;;;3.50;99.90;;;;;;5011687;28;20064;-74
2021/01/02 00:12:06;;;;;;;49.38;24.50;;;3.50;99.90;;;;;;5010288;28;19939;-75
2021/01/02 00:14:50;;;;;;;48.33;23.02;;;3.60;99.90;;;;;;5008551;28;20108;-74
2021/01/02 00:17:28;;;;;;;48.47;22.90;;;3.60;99.90;;;;;;5009219;28;20487;-74
2021/01/02 00:20:41;;;;;;;48.13;22.60;;;3.60;99.90;;;;;;5009994;28;20064;-74
2021/01/02 00:23:36;;;;;;;46.05;21.83;;;3.60;99.90;;;;;;5003138;28;20475;-74
2021/01/02 00:26:14;;;;;;;51.25;23.25;;;3.60;99.90;;;;;;5002002;28;20093;-74
2021/01/02 00:28:45;;;;;;;55.90;23.65;;;3.60;99.90;;;;;;5010242;28;20026;-74
2021/01/02 00:31:29;;;;;;;51.78;24.67;;;3.60;99.90;;;;;;5010183;28;20060;-75
2021/01/02 00:34:18;;;;;;;53.05;24.00;;;3.60;99.90;;;;;;5009537;28;20422;-74
2021/01/02 00:36:53;;;;;;;52.10;24.92;;;3.60;99.90;;;;;;5004959;28;20044;-75
2021/01/02 00:39:35;;;;;;;58.53;24.13;;;3.60;99.90;;;;;;5009693;28;20038;-74
2021/01/02 00:42:02;;;;;;;48.38;22.60;;;3.60;99.90;;;;;;5009782;28;20026;-74
2021/01/02 00:44:30;;;;;;;52.20;23.77;;;3.70;99.90;;;;;;5010006;28;20513;-74
2021/01/02 00:46:58;;;;;;;48.47;23.95;;;3.60;99.90;;;;;;5009858;28;20025;-74
2021/01/02 00:49:27;;;;;;;50.05;23.35;;;3.70;99.90;;;;;;5009964;28;20022;-74
2021/01/02 00:52:07;;;;;;;46.50;23.70;;;3.70;99.90;;;;;;5005006;28;20030;-74
2021/01/02 00:54:52;;;;;;;54.37;24.03;;;3.70;99.90;;;;;;4998953;28;20037;-74
2021/01/02 00:57:37;;;;;;;51.33;23.67;;;3.70;99.90;;;;;;5010486;28;20107;-74
2021/01/02 01:00:07;;;;;;;53.17;25.25;;;3.70;99.90;;;;;;5012882;28;20087;-74
2021/01/02 01:03:03;;;;;;;44.60;22.65;;;3.70;99.90;;;;;;5014034;28;20030;-74
2021/01/02 01:05:37;;;;;;;46.20;21.98;;;3.70;99.90;;;;;;5013312;28;20018;-74
2021/01/02 01:08:06;;;;;;;47.90;22.17;;;3.70;99.90;;;;;;5013866;28;20147;-74
2021/01/02 01:10:34;;;;;;;52.25;23.83;;;3.70;99.90;;;;;;5013294;28;20636;-74
2021/01/02 01:13:01;;;;;;;48.80;23.73;;;3.70;99.90;;;;;;5013639;28;20029;-74
2021/01/02 01:15:27;;;;;;;47.47;23.13;;;3.70;99.90;;;;;;5013053;28;20064;-74
2021/01/02 01:18:03;;;;;;;44.67;22.42;;;3.70;99.90;;;;;;5013444;28;20054;-74
2021/01/02 01:20:30;;;;;;;51.40;21.65;;;3.70;99.90;;;;;;5012269;28;20026;-74
2021/01/02 01:23:17;;;;;;;49.90;22.75;;;3.70;99.90;;;;;;5012325;28;20029;-74
2021/01/02 01:25:51;;;;;;;54.90;23.75;;;3.70;99.90;;;;;;5013344;28;20080;-75
2021/01/02 01:28:24;;;;;;;46.47;22.60;;;3.60;99.90;;;;;;5014656;28;20018;-75
2021/01/02 01:30:53;;;;;;;51.53;23.35;;;3.70;99.90;;;;;;5014077;28;20109;-74
2021/01/02 01:33:30;;;;;;;51.60;22.58;;;3.60;99.90;;;;;;5014227;28;20580;-75
2021/01/02 01:36:03;;;;;;;53.28;22.30;;;3.60;99.90;;;;;;5007687;28;20036;-75
2021/01/02 01:38:30;;;;;;;43.67;21.00;;;3.60;99.90;;;;;;4995224;28;20030;-75
2021/01/02 01:41:17;;;;;;;45.22;22.40;;;3.60;99.90;;;;;;5012419;28;20034;-74
2021/01/02 01:43:59;;;;;;;48.03;22.02;;;3.60;99.90;;;;;;5013681;28;20034;-74
2021/01/02 01:46:32;;;;;;;51.08;24.60;;;3.60;99.90;;;;;;5011671;28;20021;-75
2021/01/02 01:49:11;;;;;;;50.92;22.95;;;3.60;99.90;;;;;;5013662;28;20030;-75
2021/01/02 01:51:50;;;;;;;45.92;20.50;;;3.60;99.90;;;;;;5013596;28;20056;-75
2021/01/02 01:54:53;;;;;;;45.92;21.60;;;3.50;99.90;;;;;;5012523;28;20125;-75
2021/01/02 01:57:24;;;;;;;55.28;23.25;;;3.50;99.90;;;;;;5013409;28;20029;-75
2021/01/02 01:59:59;;;;;;;48.47;21.75;;;3.50;99.90;;;;;;5012217;28;20049;-75
2021/01/02 02:02:59;;;;;;;46.92;22.77;;;3.50;99.90;;;;;;5013618;28;20022;-75
2021/01/02 02:05:31;;;;;;;50.42;22.20;;;3.50;99.90;;;;;;5000799;28;20113;-75
2021/01/02 02:08:09;;;;;;;46.03;21.35;;;3.50;99.90;;;;;;5011760;28;20628;-75
2021/01/02 02:10:41;;;;;;;47.17;21.05;;;3.50;99.90;;;;;;4999760;28;20569;-74
2021/01/02 02:13:31;;;;;;;44.05;21.48;;;3.50;99.90;;;;;;5012111;28;20029;-75
2021/01/02 02:15:57;;;;;;;49.13;20.83;;;3.40;99.90;;;;;;5009851;28;20376;-75
2021/01/02 02:18:28;;;;;;;45.75;20.85;;;3.40;99.90;;;;;;5002808;28;20040;-75
2021/01/02 02:20:59;;;;;;;50.00;20.73;;;3.40;99.90;;;;;;5012326;28;20040;-73
2021/01/02 02:23:42;;;;;;;42.85;20.60;;;3.40;99.90;;;;;;5012298;28;20026;-73
2021/01/02 02:26:25;;;;;;;45.25;21.95;;;3.40;99.90;;;;;;5011398;28;20033;-73
2021/01/02 02:28:53;;;;;;;51.10;20.48;;;3.30;99.90;;;;;;4998817;28;20026;-73
2021/01/02 02:31:23;;;;;;;44.20;20.10;;;3.30;99.90;;;;;;5011997;28;20083;-73
2021/01/02 02:34:02;;;;;;;45.55;19.77;;;3.40;99.90;;;;;;5011835;28;20116;-73
2021/01/02 02:36:30;;;;;;;46.88;21.30;;;3.30;99.90;;;;;;5006400;28;20033;-73
2021/01/02 02:39:00;;;;;;;43.65;19.88;;;3.40;99.90;;;;;;4996488;28;20034;-73
2021/01/02 02:41:30;;;;;;;41.83;19.52;;;3.40;99.90;;;;;;4991821;28;20527;-74
2021/01/02 02:44:00;;;;;;;45.73;22.00;;;3.40;99.90;;;;;;4992831;28;20022;-74
2021/01/02 02:46:31;;;;;;;47.00;22.63;;;3.30;99.90;;;;;;4992019;28;20022;-74
2021/01/02 02:49:01;;;;;;;41.20;21.15;;;3.40;99.90;;;;;;4991323;28;20033;-74
2021/01/02 02:51:31;;;;;;;44.15;19.80;;;3.40;99.90;;;;;;4990870;28;20045;-74
2021/01/02 02:53:57;;;;;;;;;;;3.40;99.90;;;;;;4992828;28;20022;-74
2021/01/02 02:56:22;;;;;;;41.35;18.35;;;3.40;99.90;;;;;;4991536;28;19979;-74
2021/01/02 02:58:49;;;;;;;43.08;19.65;;;3.40;99.90;;;;;;4990732;28;20111;-74
2021/01/02 03:01:14;;;;;;;44.03;19.58;;;3.40;99.90;;;;;;5007217;28;20053;-74
2021/01/02 03:03:40;;;;;;;44.70;19.80;;;3.40;99.90;;;;;;4991583;28;20026;-75
2021/01/02 03:06:05;;;;;;;41.58;21.05;;;3.40;99.90;;;;;;4992231;28;20031;-75
2021/01/02 03:08:31;;;;;;;45.97;21.10;;;3.30;99.90;;;;;;4991489;28;20037;-75
2021/01/02 03:11:00;;;;;;;43.13;21.05;;;3.30;99.90;;;;;;5007623;28;20027;-74
2021/01/02 03:13:25;;;;;;;46.17;19.25;;;3.30;99.90;;;;;;4992523;28;20037;-75
2021/01/02 03:15:51;;;;;;;43.92;19.90;;;3.30;99.90;;;;;;4991973;28;20023;-75
2021/01/02 03:18:16;;;;;;;47.60;21.10;;;3.30;99.90;;;;;;5007996;28;20030;-75
2021/01/02 03:20:42;;;;;;;49.65;21.75;;;3.30;99.90;;;;;;4991940;28;20035;-75
2021/01/02 03:23:07;;;;;;;46.35;21.23;;;3.30;99.90;;;;;;4983293;28;20684;-75
2021/01/02 03:25:33;;;;;;;41.95;20.15;;;3.30;99.90;;;;;;4991868;28;20026;-75
2021/01/02 03:27:58;;;;;;;47.53;20.75;;;3.30;99.90;;;;;;5000890;28;20026;-75
2021/01/02 03:30:26;;;;;;;50.28;23.15;;;3.30;99.90;;;;;;4990790;28;20011;-74
2021/01/02 03:32:52;;;;;;;43.28;21.25;;;3.30;99.90;;;;;;4990433;28;20076;-74
2021/01/02 03:35:18;;;;;;;41.22;20.38;;;3.30;99.90;;;;;;4990668;28;20364;-75
2021/01/02 03:37:45;;;;;;;44.05;20.38;;;3.30;99.90;;;;;;4989872;28;20034;-74
2021/01/02 03:40:16;;;;;;;44.72;20.77;;;3.30;99.90;;;;;;4982825;28;20089;-74
2021/01/02 03:42:47;;;;;;;47.55;20.42;;;3.40;99.90;;;;;;5005847;28;20399;-74
2021/01/02 03:45:15;;;;;;;45.92;19.63;;;3.40;99.90;;;;;;4988627;28;20023;-73
2021/01/02 03:47:47;;;;;;;40.78;20.60;;;3.40;99.90;;;;;;4986750;28;20495;-73
2021/01/02 03:50:14;;;;;;;50.63;22.13;;;3.50;99.90;;;;;;4991001;28;20027;-73
2021/01/02 03:52:40;;;;;;;48.58;20.63;;;3.50;99.90;;;;;;4990725;28;20093;-73
2021/01/02 03:55:08;;;;;;;40.60;20.05;;;3.40;99.90;;;;;;4990397;28;20038;-74
2021/01/02 03:57:34;;;;;;;43.80;20.27;;;3.40;99.90;;;;;;4990281;28;20025;-74
2021/01/02 04:00:00;;;;;;;41.70;20.00;;;3.40;99.90;;;;;;4988238;28;20046;-74
2021/01/02 04:02:26;;;;;;;41.95;19.00;;;3.40;99.90;;;;;;4983173;28;20098;-74
2021/01/02 04:04:52;;;;;;;40.72;19.77;;;3.40;99.90;;;;;;4984916;28;20073;-74
2021/01/02 04:07:17;;;;;;;42.17;20.67;;;3.40;99.90;;;;;;4989453;28;20034;-74
2021/01/02 04:09:43;;;;;;;46.42;20.27;;;3.40;99.90;;;;;;4990881;28;20018;-74
2021/01/02 04:12:09;;;;;;;39.80;18.88;;;3.30;99.90;;;;;;4989567;28;20026;-74
2021/01/02 04:14:34;;;;;;;41.00;20.15;;;3.30;99.90;;;;;;4990358;28;20104;-74
2021/01/02 04:16:59;;;;;;;44.13;20.23;;;3.30;99.90;;;;;;4990786;28;20022;-74
2021/01/02 04:19:25;;;;;;;38.47;19.90;;;3.40;99.90;;;;;;4990874;28;20054;-74
2021/01/02 04:21:50;;;;;;;49.35;21.42;;;3.40;99.90;;;;;;4990811;28;20100;-74
2021/01/02 04:24:16;;;;;;;48.63;21.25;;;3.40;99.90;;;;;;4989578;28;20484;-74
2021/01/02 04:26:42;;;;;;;48.45;21.58;;;3.40;99.90;;;;;;5005144;28;20023;-74
2021/01/02 04:29:08;;;;;;;48.75;20.73;;;3.30;99.90;;;;;;5006179;28;20371;-75
2021/01/02 04:31:39;;;;;;;47.20;20.90;;;3.30;99.90;;;;;;4988992;28;20109;-74
2021/01/02 04:34:05;;;;;;;;;;;3.30;99.90;;;;;;4990031;28;20076;-74
2021/01/02 04:36:31;;;;;;;45.28;19.88;;;3.30;99.90;;;;;;4990298;28;19909;-74
2021/01/02 04:38:56;;;;;;;41.78;20.17;;;3.30;99.90;;;;;;4985839;28;20676;-74
2021/01/02 04:41:22;;;;;;;47.00;20.63;;;3.30;99.90;;;;;;4976510;28;20153;-75
2021/01/02 04:43:49;;;;;;;40.10;19.58;;;3.30;99.90;;;;;;4990590;28;20053;-74
2021/01/02 04:46:15;;;;;;;43.00;20.55;;;3.20;99.90;;;;;;4989092;28;20569;-74
2021/01/02 04:48:44;;;;;;;42.00;20.50;;;3.20;99.90;;;;;;4986046;28;20077;-74
2021/01/02 04:51:11;;;;;;;45.20;21.45;;;3.30;99.90;;;;;;4987686;28;20033;-74
2021/01/02 04:53:37;;;;;;;45.17;20.63;;;3.20;99.90;;;;;;4985378;28;20066;-74
2021/01/02 04:56:04;;;;;;;43.58;19.95;;;3.20;99.90;;;;;;4986556;28;20061;-74
2021/01/02 04:58:34;;;;;;;42.60;19.58;;;3.20;99.90;;;;;;4987958;28;20495;-74
2021/01/02 05:01:03;;;;;;;42.40;20.53;;;3.20;99.90;;;;;;4987467;28;20072;-74
2021/01/02 05:03:33;;;;;;;41.15;19.98;;;3.20;99.90;;;;;;4986099;28;20034;-74
2021/01/02 05:05:59;;;;;;;48.88;21.58;;;3.20;99.90;;;;;;4987682;28;20365;-74
2021/01/02 05:08:24;;;;;;;45.28;20.77;;;3.20;99.90;;;;;;4987779;28;20073;-74
2021/01/02 05:10:59;;;;;;;47.17;22.35;;;3.20;99.90;;;;;;4987854;28;20113;-74
2021/01/02 05:13:29;;;;;;;44.42;23.15;;;3.20;99.90;;;;;;4987325;28;20399;-74
2021/01/02 05:15:56;;;;;;;46.22;21.95;;;3.20;99.90;;;;;;4985900;28;20113;-74
2021/01/02 05:18:22;;;;;;;41.90;19.55;;;3.20;99.90;;;;;;4987226;28;20498;-73
2021/01/02 05:20:48;;;;;;;48.97;22.40;;;3.20;99.90;;;;;;4984904;28;20395;-74
2021/01/02 05:23:13;;;;;;;44.92;22.25;;;3.20;99.90;;;;;;4986396;28;20022;-73
2021/01/02 05:25:39;;;;;;;45.78;21.52;;;3.10;99.90;;;;;;4986445;28;20026;-74
2021/01/02 05:28:14;;;;;;;42.05;20.90;;;3.10;99.90;;;;;;4985830;28;20060;-75
2021/01/02 05:30:40;;;;;;;51.72;23.17;;;3.20;99.90;;;;;;4986001;28;20382;-74
2021/01/02 05:33:11;;;;;;;47.47;21.58;;;3.10;99.90;;;;;;4986558;28;20022;-75
2021/01/02 05:35:45;;;;;;;48.78;22.08;;;3.10;99.90;;;;;;4986193;28;20349;-75
2021/01/02 05:38:23;;;;;;;48.55;23.02;;;3.10;99.90;;;;;;4987614;28;20081;-74
2021/01/02 05:40:53;;;;;;;48.58;20.70;;;3.10;99.90;;;;;;4985799;28;20030;-74
2021/01/02 05:43:24;;;;;;;40.17;20.50;;;3.10;99.90;;;;;;4986166;28;20031;-75
2021/01/02 05:45:50;;;;;;;;;;;3.10;99.90;;;;;;4990115;28;20029;-75
2021/01/02 05:48:24;;;;;;;49.20;22.08;;;3.00;99.90;;;;;;5000255;28;19932;-74
2021/01/02 05:51:12;;;;;;;44.92;21.55;;;3.00;99.90;;;;;;5001022;28;20045;-74
2021/01/02 05:53:37;;;;;;;44.65;20.85;;;2.90;99.90;;;;;;4989944;28;20061;-75
2021/01/02 05:56:11;;;;;;;46.03;20.40;;;2.90;99.90;;;;;;4988865;28;20544;-74
2021/01/02 05:58:44;;;;;;;47.45;21.98;;;2.90;99.90;;;;;;4988655;28;20030;-74
2021/01/02 06:01:17;;;;;;;45.03;20.55;;;2.90;99.90;;;;;;4992291;28;20041;-74
2021/01/02 06:03:50;;;;;;;47.60;20.13;;;2.90;99.90;;;;;;5007127;28;20014;-74
2021/01/02 06:06:17;;;;;;;49.95;21.58;;;2.80;99.90;;;;;;4993042;28;20028;-75
2021/01/02 06:08:47;;;;;;;41.90;21.60;;;2.80;99.90;;;;;;4992256;28;20121;-75
2021/01/02 06:11:17;;;;;;;50.35;21.08;;;2.80;99.90;;;;;;5008783;28;20084;-75
2021/01/02 06:13:48;;;;;;;48.78;22.60;;;2.80;99.90;;;;;;4993561;28;20034;-74
2021/01/02 06:16:14;;;;;;;44.70;20.65;;;2.80;99.90;;;;;;4993021;28;20033;-74
2021/01/02 06:18:41;;;;;;;42.83;21.15;;;2.90;99.90;;;;;;4991940;28;20030;-75
2021/01/02 06:21:18;;;;;;;43.72;21.73;;;2.80;99.90;;;;;;4993287;28;20027;-75
2021/01/02 06:23:46;;;;;;;46.83;21.33;;;2.90;99.90;;;;;;4991970;28;20023;-74
2021/01/02 06:26:14;;;;;;;41.65;20.92;;;2.90;99.90;;;;;;4992758;28;20021;-74
2021/01/02 06:28:42;;;;;;;46.05;21.92;;;2.90;99.90;;;;;;4991001;28;20027;-75
2021/01/02 06:31:12;;;;;;;43.47;20.50;;;2.90;99.90;;;;;;4989597;28;20022;-74
2021/01/02 06:33:49;;;;;;;43.35;20.60;;;2.90;99.90;;;;;;4991674;28;20038;-75
2021/01/02 06:36:35;;;;;;;44.22;19.95;;;2.90;99.90;;;;;;4990758;28;20027;-75
2021/01/02 06:39:19;;;;;;;47.70;21.58;;;2.90;99.90;;;;;;4987730;28;20029;-74
2021/01/02 06:41:45;;;;;;;47.58;21.23;;;3.00;99.90;;;;;;4985421;28;20023;-74
2021/01/02 06:44:31;;;;;;;47.45;21.15;;;3.00;99.90;;;;;;4985844;28;20076;-74
2021/01/02 06:47:16;;;;;;;49.17;21.50;;;3.00;99.90;;;;;;4987472;28;20206;-74
2021/01/02 06:49:43;;;;;;;47.20;20.30;;;3.00;99.90;;;;;;4991006;28;20014;-74
2021/01/02 06:52:10;;;;;;;42.65;19.92;;;3.00;99.90;;;;;;4985612;28;20669;-74
2021/01/02 06:54:35;;;;;;;46.17;21.45;;;3.10;99.90;;;;;;4985349;28;20046;-74
2021/01/02 06:57:03;;;;;;;43.63;20.52;;;3.10;99.90;;;;;;4990334;28;20366;-74
2021/01/02 06:59:30;;;;;;;39.92;19.58;;;3.10;99.90;;;;;;4985325;28;20506;-74
2021/01/02 07:01:56;;;;;;;46.15;21.38;;;3.10;99.90;;;;;;4990483;28;20403;-74
2021/01/02 07:04:35;;;;;;;44.25;22.45;;;3.10;99.90;;;;;;4992094;28;20023;-74
2021/01/02 07:07:01;;;;;;;40.60;18.52;;;3.20;99.90;;;;;;4991841;28;20026;-74
2021/01/02 07:09:28;;;;;;;41.83;20.42;;;3.20;99.90;;;;;;4992248;28;20414;-74
2021/01/02 07:12:10;;;;;;;43.15;21.85;;;3.20;99.90;;;;;;4990700;28;20027;-76
2021/01/02 07:14:36;;;;;;;42.72;20.83;;;3.20;99.90;;;;;;4992156;28;20050;-75
2021/01/02 07:17:03;;;;;;;50.65;20.95;;;3.20;99.90;;;;;;4990947;28;20104;-75
2021/01/02 07:19:34;;;;;;;41.17;20.10;;;3.20;99.90;;;;;;4993135;28;20030;-75
2021/01/02 07:22:04;;;;;;;44.05;20.27;;;3.20;99.90;;;;;;4991285;28;20483;-75
2021/01/02 07:24:38;;;;;;;41.20;19.87;;;3.20;99.90;;;;;;5005576;28;20461;-74
2021/01/02 07:27:06;;;;;;;37.15;18.98;;;3.20;99.90;;;;;;4990687;28;20030;-74
2021/01/02 07:29:34;;;;;;;44.28;21.67;;;3.20;99.90;;;;;;4991580;28;20042;-74
2021/01/02 07:32:07;;;;;;;46.95;21.17;;;3.20;99.90;;;;;;4991906;28;20019;-74
2021/01/02 07:34:33;;;;;;;41.65;20.45;;;3.20;99.90;;;;;;4991047;28;20092;-74
2021/01/02 07:37:07;;;;;;;40.05;20.48;;;3.20;99.90;;;;;;4988155;28;20074;-73
2021/01/02 07:39:33;;;;;;;44.25;20.77;;;3.20;99.90;;;;;;4989900;28;20030;-74
2021/01/02 07:42:10;;;;;;;43.80;20.25;;;3.20;99.90;;;;;;4991016;28;20026;-74
2021/01/02 07:44:37;;;;;;;36.95;17.63;;;3.20;99.90;;;;;;4976704;28;20102;-74
2021/01/02 07:47:03;;;;;;;40.22;19.60;;;3.20;99.90;;;;;;5005204;28;20077;-75
2021/01/02 07:49:29;;;;;;;41.60;19.98;;;3.20;99.90;;;;;;4990471;28;20049;-75
2021/01/02 07:51:55;;;;;;;40.47;20.83;;;3.30;99.90;;;;;;4992111;28;20018;-75
2021/01/02 07:54:35;;;;;;;49.35;21.15;;;3.20;99.90;;;;;;4992382;28;20058;-75
2021/01/02 07:57:03;;;;;;;44.50;21.63;;;3.20;99.90;;;;;;4991744;28;20084;-75
2021/01/02 07:59:32;;;;;;;44.50;21.08;;;3.20;99.90;;;;;;4992678;28;20261;-75
2021/01/02 08:02:00;;;;;;;39.58;18.95;;;3.20;99.90;;;;;;4991448;28;20033;-74
2021/01/02 08:04:26;;;;;;;41.72;20.48;;;3.20;99.90;;;;;;4990794;28;20025;-73
2021/01/02 08:06:57;;;;;;;44.08;20.58;;;3.20;99.90;;;;;;4989226;28;20027;-74
2021/01/02 08:09:22;;;;;;;;;;;3.20;99.90;;;;;;4989804;28;20599;-74
2021/01/02 08:12:05;;;;;;;40.53;19.65;;;3.30;99.90;;;;;;4990395;28;19912;-74
2021/01/02 08:14:32;;;;;;;47.38;20.90;;;3.30;99.90;;;;;;4985084;28;20028;-74
2021/01/02 08:17:01;;;;;;;41.28;20.75;;;3.20;99.90;;;;;;4984349;28;20021;-74
2021/01/02 08:19:30;;;;;;;47.97;21.30;;;3.20;99.90;;;;;;4990269;28;20553;-74
2021/01/02 08:21:55;;;;;;;39.60;19.67;;;3.20;99.90;;;;;;4994482;28;20026;-74
2021/01/02 08:24:21;;;;;;;40.78;19.30;;;3.20;99.90;;;;;;4996942;28;20042;-74
2021/01/02 08:26:48;;;;;;;40.00;20.80;;;3.20;99.90;;;;;;4990013;28;20030;-73
2021/01/02 08:29:14;;;;;;;45.72;20.60;;;3.30;99.90;;;;;;4989309;28;20464;-73
2021/01/02 08:31:52;;;;;;;40.60;19.75;;;3.30;99.90;;;;;;4990512;28;20093;-73
2021/01/02 08:34:27;;;;;;;45.80;20.77;;;3.30;99.90;;;;;;4990674;28;20061;-74
2021/01/02 08:36:58;;;;;;;35.65;18.90;;;3.40;99.90;;;;;;4990611;28;20049;-74
2021/01/02 08:39:23;;;;;;;38.90;19.27;;;3.40;99.90;;;;;;4989674;28;20479;-74
2021/01/02 08:41:54;;;;;;;41.72;20.25;;;3.40;99.90;;;;;;4985585;28;20047;-74
2021/01/02 08:44:22;;;;;;;37.35;18.63;;;3.40;99.90;;;;;;4978456;28;20030;-73
2021/01/02 08:46:48;;;;;;;35.58;18.50;;;3.40;99.90;;;;;;4983167;28;20022;-74
2021/01/02 08:49:29;;;;;;;37.78;19.45;;;3.40;99.90;;;;;;4990568;28;20018;-75
2021/01/02 08:52:14;;;;;;;40.72;20.15;;;3.50;99.90;;;;;;4990539;28;20117;-74
2021/01/02 08:54:39;;;;;;;43.03;20.48;;;3.40;99.90;;;;;;4990954;28;20065;-74
2021/01/02 08:57:27;;;;;;;39.35;19.00;;;3.50;99.90;;;;;;4989626;28;20038;-74
2021/01/02 09:00:04;;;;;;;40.00;19.45;;;3.50;99.90;;;;;;4990166;28;20014;-74
2021/01/02 09:02:30;;;;;;;34.25;18.30;;;3.50;99.90;;;;;;5004941;28;20061;-74
2021/01/02 09:05:16;;;;;;;41.97;19.42;;;3.60;99.90;;;;;;4988436;28;20073;-74
2021/01/02 09:07:54;;;;;;;38.85;19.42;;;3.60;99.90;;;;;;4981754;28;20546;-73
2021/01/02 09:10:22;;;;;;;43.72;19.13;;;3.60;99.90;;;;;;4986670;28;20034;-73
2021/01/02 09:13:12;;;;;;;42.95;20.10;;;3.60;99.90;;;;;;4998464;28;20598;-73
2021/01/02 09:15:55;;;;;;;36.37;18.93;;;3.60;99.90;;;;;;4983268;28;20041;-75
2021/01/02 09:18:29;;;;;;;38.40;18.33;;;3.70;99.90;;;;;;4990575;28;20037;-75
2021/01/02 09:20:55;;;;;;;40.42;19.23;;;3.80;99.90;;;;;;4990476;28;20030;-74
2021/01/02 09:23:31;;;;;;;36.13;19.40;;;3.90;99.90;;;;;;4992906;28;20122;-75
2021/01/02 09:25:57;;;;;;;41.97;18.77;;;3.90;99.90;;;;;;4990100;28;20056;-74
2021/01/02 09:28:23;;;;;;;34.47;17.88;;;3.80;99.90;;;;;;4992829;28;20487;-74
2021/01/02 09:30:50;;;;;;;41.03;19.15;;;3.90;99.90;;;;;;4992624;28;20510;-74
2021/01/02 09:33:16;;;;;;;36.17;18.25;;;3.90;99.90;;;;;;4993516;28;20126;-74
2021/01/02 09:35:44;;;;;;;39.28;18.65;;;4.00;99.90;;;;;;4991017;28;20018;-74
2021/01/02 09:38:10;;;;;;;39.63;18.70;;;4.10;99.90;;;;;;4991940;28;20467;-74
2021/01/02 09:40:38;;;;;;;35.85;17.33;;;4.20;99.90;;;;;;4992151;28;20085;-72
2021/01/02 09:43:08;;;;;;;33.83;18.00;;;4.30;99.90;;;;;;4991694;28;20524;-72
2021/01/02 09:45:34;;;;;;;37.55;18.45;;;4.40;99.90;;;;;;4986647;28;20496;-72
2021/01/02 09:47:59;;;;;;;33.67;18.33;;;4.40;99.90;;;;;;4977160;28;20027;-72
2021/01/02 09:50:25;;;;;;;38.60;18.98;;;4.40;99.90;;;;;;4991579;28;20372;-73
2021/01/02 09:52:51;;;;;;;35.80;17.77;;;4.50;99.90;;;;;;4993040;28;20038;-73
2021/01/02 09:55:17;;;;;;;34.63;18.38;;;4.50;99.90;;;;;;4991553;28;20030;-73
2021/01/02 09:57:46;;;;;;;36.53;18.10;;;4.60;99.90;;;;;;4992304;28;20026;-72
2021/01/02 10:00:11;;;;;;;33.28;17.92;;;4.60;99.90;;;;;;4992065;28;20458;-73
2021/01/02 10:02:37;;;;;;;31.02;17.35;;;4.60;99.90;;;;;;4993165;28;20038;-73
2021/01/02 10:05:03;;;;;;;39.05;18.95;;;4.70;99.90;;;;;;4992661;28;20057;-74
2021/01/02 10:07:28;;;;;;;34.42;18.02;;;4.70;99.90;;;;;;4993506;28;20407;-77
2021/01/02 10:09:54;;;;;;;33.20;18.00;;;4.80;99.90;;;;;;4993072;28;20025;-76
2021/01/02 10:12:19;;;;;;;37.55;17.55;;;4.90;99.90;;;;;;4993323;28;20096;-77
2021/01/02 10:14:45;;;;;;;39.70;19.48;;;5.10;99.90;;;;;;4993080;28;20054;-76
2021/01/02 10:17:12;;;;;;;36.70;18.95;;;5.20;99.90;;;;;;4994590;28;20026;-76
2021/01/02 10:19:48;;;;;;;31.10;17.25;;;5.30;99.90;;;;;;4993186;28;20034;-77
2021/01/02 10:22:16;;;;;;;31.05;17.83;;;5.40;99.90;;;;;;4974787;28;20093;-77
2021/01/02 10:24:45;;;;;;;32.55;17.23;;;5.50;99.90;;;;;;4981671;28;20050;-78
2021/01/02 10:27:11;;;;;;;46.20;20.23;;;5.60;99.90;;;;;;4991963;28;20081;-77
2021/01/02 10:29:36;;;;;;;28.75;16.42;;;5.50;99.90;;;;;;4992870;28;20492;-77
2021/01/02 10:32:04;;;;;;;34.38;18.63;;;5.50;99.90;;;;;;4993203;28;20109;-76
2021/01/02 10:34:29;;;;;;;33.88;18.27;;;5.40;99.90;;;;;;4991011;28;20033;-79
2021/01/02 10:37:00;;;;;;;35.55;18.83;;;5.50;99.90;;;;;;4992633;28;20026;-78
2021/01/02 10:39:25;;;;;;;31.85;17.17;;;5.50;99.90;;;;;;4994090;28;20030;-79
2021/01/02 10:41:51;;;;;;;34.42;18.10;;;5.50;99.90;;;;;;4991393;28;20392;-75
2021/01/02 10:44:19;;;;;;;32.38;17.63;;;5.60;99.90;;;;;;4992707;28;20027;-75
2021/01/02 10:46:50;;;;;;;31.05;17.40;;;5.80;99.90;;;;;;4986033;28;20027;-76
2021/01/02 10:49:18;;;;;;;28.52;16.02;;;6.20;99.90;;;;;;4984546;28;20613;-75
2021/01/02 10:51:45;;;;;;;24.67;15.63;;;7.00;99.90;;;;;;4991182;28;20033;-76
2021/01/02 10:54:12;;;;;;;27.42;15.48;;;7.90;99.90;;;;;;4991445;28;20670;-76
2021/01/02 10:56:37;;;;;;;27.65;17.38;;;8.90;99.90;;;;;;4992380;28;20606;-77
2021/01/02 10:59:05;;;;;;;25.10;16.20;;;9.80;98.50;;;;;;4991164;28;20097;-76
2021/01/02 11:01:43;;;;;;;26.48;14.98;;;10.30;96.60;;;;;;4989340;28;20027;-76
2021/01/02 11:04:08;;;;;;;22.63;15.18;;;11.00;92.10;;;;;;4989508;28;20022;-76
2021/01/02 11:06:39;;;;;;;24.10;16.33;;;11.50;89.60;;;;;;4989828;28;20014;-76
2021/01/02 11:09:06;;;;;;;25.30;15.52;;;11.50;82.70;;;;;;4990316;28;20075;-76
2021/01/02 11:11:32;;;;;;;26.33;16.10;;;11.30;83.60;;;;;;4991808;28;20113;-76
2021/01/02 11:13:57;;;;;;;23.00;15.25;;;11.50;84.40;;;;;;5007170;28;20113;-76
2021/01/02 11:16:37;;;;;;;22.15;14.10;;;12.00;81.80;;;;;;5007015;28;20022;-76
2021/01/02 11:19:24;;;;;;;21.67;14.50;;;12.20;79.40;;;;;;4991156;28;20030;-76
2021/01/02 11:21:53;;;;;;;24.13;15.82;;;12.00;77.80;;;;;;4992193;28;20034;-75
2021/01/02 11:24:24;;;;;;;21.60;14.68;;;11.90;76.90;;;;;;4992130;28;20080;-76
2021/01/02 11:26:52;;;;;;;23.10;15.55;;;11.40;78.60;;;;;;4992337;28;20030;-76
2021/01/02 11:29:20;;;;;;;24.02;15.20;;;10.70;83.80;;;;;;4990628;28;20033;-75
2021/01/02 11:31:46;;;;;;;22.98;15.40;;;10.10;86.40;;;;;;4990662;28;20077;-76
2021/01/02 11:34:13;;;;;;;22.35;15.68;;;9.40;91.50;;;;;;4992458;28;20038;-76
2021/01/02 11:36:41;;;;;;;25.45;15.93;;;9.20;93.20;;;;;;4990292;28;20153;-75
2021/01/02 11:39:08;;;;;;;23.48;15.65;;;8.90;95.30;;;;;;4992110;28;20034;-75
2021/01/02 11:41:39;;;;;;;24.42;15.95;;;8.60;97.70;;;;;;4991576;28;20030;-75
2021/01/02 11:44:07;;;;;;;26.98;16.00;;;8.40;99.00;;;;;;4992029;28;20037;-75
2021/01/02 11:46:41;;;;;;;27.55;16.00;;;8.30;99.90;;;;;;4990947;28;20024;-75
2021/01/02 11:49:08;;;;;;;29.20;17.27;;;8.10;99.90;;;;;;4984534;28;20018;-76
2021/01/02 11:51:34;;;;;;;25.73;14.90;;;8.00;99.90;;;;;;4986995;28;20066;-75
2021/01/02 11:53:59;;;;;;;30.45;16.13;;;7.80;99.90;;;;;;4990363;28;20088;-75
2021/01/02 11:56:26;;;;;;;27.00;15.15;;;7.70;99.90;;;;;;4989370;28;20259;-80
2021/01/02 11:58:54;;;;;;;30.30;15.57;;;7.60;99.90;;;;;;4989153;28;20647;-80
2021/01/02 12:01:21;;;;;;;30.00;16.50;;;7.50;99.90;;;;;;4988964;28;20045;-81
2021/01/02 12:03:47;;;;;;;27.38;15.88;;;7.50;99.90;;;;;;4991524;28;20385;-81
2021/01/02 12:06:13;;;;;;;29.23;16.27;;;7.40;99.90;;;;;;4988826;28;20053;-75
2021/01/02 12:08:39;;;;;;;30.38;17.23;;;7.30;99.90;;;;;;4988931;28;20083;-75
2021/01/02 12:11:06;;;;;;;28.77;15.85;;;7.30;99.90;;;;;;4985781;28;20035;-75
2021/01/02 12:13:38;;;;;;;26.23;15.93;;;7.20;99.90;;;;;;4989840;28;20034;-75
2021/01/02 12:16:04;;;;;;;27.38;15.52;;;6.90;99.90;;;;;;4990757;28;20033;-75
2021/01/02 12:18:29;;;;;;;26.63;15.35;;;6.90;99.90;;;;;;4986751;28;20018;-75
2021/01/02 12:20:54;;;;;;;28.25;16.38;;;6.80;99.90;;;;;;4995555;28;20054;-75
2021/01/02 12:23:20;;;;;;;28.40;15.07;;;6.90;99.90;;;;;;4988664;28;20519;-75
2021/01/02 12:25:46;;;;;;;29.15;15.43;;;6.80;99.90;;;;;;4989178;28;20025;-75
2021/01/02 12:28:11;;;;;;;29.80;16.23;;;6.80;99.90;;;;;;4990485;28;20034;-75
2021/01/02 12:30:38;;;;;;;29.83;16.77;;;6.80;99.90;;;;;;4993031;28;20025;-75
2021/01/02 12:33:04;;;;;;;32.20;16.88;;;6.70;99.90;;;;;;4991092;28;20046;-75
2021/01/02 12:35:29;;;;;;;28.45;15.95;;;6.70;99.90;;;;;;4981835;28;20520;-75
2021/01/02 12:37:55;;;;;;;28.05;16.17;;;6.60;99.90;;;;;;5004209;28;20031;-75
2021/01/02 12:40:21;;;;;;;30.15;16.85;;;6.60;99.90;;;;;;4993455;28;20022;-76
2021/01/02 12:42:46;;;;;;;34.78;16.85;;;6.70;99.90;;;;;;4987251;28;20133;-80
2021/01/02 12:45:12;;;;;;;30.10;15.95;;;6.70;99.90;;;;;;4983832;28;20023;-80
2021/01/02 12:47:38;;;;;;;34.38;17.23;;;6.70;99.90;;;;;;4987794;28;20026;-81
2021/01/02 12:50:12;;;;;;;32.20;16.55;;;6.80;99.90;;;;;;4983837;28;20553;-81
2021/01/02 12:52:38;;;;;;;35.10;19.00;;;6.60;99.90;;;;;;4993811;28;20036;-81
2021/01/02 12:55:12;;;;;;;31.50;16.88;;;6.50;99.90;;;;;;4990813;28;20033;-84